Time;durP1;ratioP1;P1;durP2;ratioP2;P2;SDS_P1;SDS_P2;PMS_P1;PMS_P2;Temp;Humidity;BMP_temperature;BMP_pressure;BME280_temperature;BME280_humidity;BME280_pressure;Samples;Min_cycle;Max_cycle;Signal;HPM_P1;HPM_P2
2021/12/03 00:02:17;;;;;;;34.63;32.25;;;;;;;20.26;46.13;100907.59;4940096;29;20452;-87
2021/12/03 00:04:43;;;;;;;36.10;34.20;;;;;;;20.25;46.15;100914.19;4955974;29;20040;-86
2021/12/03 00:07:08;;;;;;;35.65;33.25;;;;;;;20.25;46.08;100916.91;4956027;28;20039;-89
2021/12/03 00:09:36;;;;;;;36.95;35.05;;;;;;;20.25;46.09;100911.44;4955914;28;20043;-86
2021/12/03 00:12:06;;;;;;;34.58;32.55;;;;;;;20.25;46.02;100905.94;4939966;29;20395;-86
2021/12/03 00:14:34;;;;;;;33.72;31.83;;;;;;;20.24;45.92;100909.81;4923679;29;20027;-86
2021/12/03 00:17:00;;;;;;;34.75;32.85;;;;;;;20.23;45.91;100913.66;4956853;28;20114;-85
2021/12/03 00:19:25;;;;;;;34.85;32.80;;;;;;;20.21;45.98;100902.22;4955681;29;20046;-85
2021/12/03 00:21:51;;;;;;;36.10;34.10;;;;;;;20.21;46.06;100915.09;4956214;28;20032;-86
2021/12/03 00:24:17;;;;;;;34.30;32.50;;;;;;;20.19;45.55;100912.66;4939676;29;20448;-87
2021/12/03 00:26:42;;;;;;;36.50;34.65;;;;;;;20.18;45.95;100908.28;4955828;28;20027;-86
2021/12/03 00:29:09;;;;;;;36.15;34.15;;;;;;;20.16;45.71;100907.78;4939196;29;20039;-86
2021/12/03 00:31:34;;;;;;;35.00;33.20;;;;;;;20.15;45.69;100900.66;4939491;29;20503;-86
2021/12/03 00:34:00;;;;;;;35.17;33.28;;;;;;;20.13;45.56;100900.16;4939457;29;20126;-86
2021/12/03 00:36:27;;;;;;;35.22;33.33;;;;;;;20.13;44.98;100905.63;4940268;29;20089;-86
2021/12/03 00:38:56;;;;;;;35.97;33.65;;;;;;;20.11;45.18;100910.63;4939635;29;20154;-87
2021/12/03 00:41:22;;;;;;;33.88;32.20;;;;;;;20.10;45.20;100903.50;4939885;29;20105;-86
2021/12/03 00:43:51;;;;;;;36.10;34.17;;;;;;;20.09;44.74;100908.19;4939307;29;20514;-86
2021/12/03 00:46:18;;;;;;;34.88;33.08;;;;;;;20.07;44.97;100910.41;4955142;28;20035;-87
2021/12/03 00:48:45;;;;;;;34.70;32.83;;;;;;;20.07;44.70;100910.41;4954671;28;20059;-86
2021/12/03 00:51:12;;;;;;;35.00;33.20;;;;;;;20.06;44.82;100916.22;4956283;29;20043;-85
2021/12/03 00:53:39;;;;;;;35.15;33.35;;;;;;;20.05;44.91;100923.59;4939786;29;20380;-87
2021/12/03 00:56:06;;;;;;;34.40;32.58;;;;;;;20.04;44.71;100918.44;4955068;29;20042;-87
2021/12/03 00:58:31;;;;;;;35.78;33.88;;;;;;;20.02;44.59;100918.72;4938676;29;20047;-87
2021/12/03 01:00:57;;;;;;;35.53;33.55;;;;;;;20.01;44.65;100919.84;4938867;29;20043;-87
2021/12/03 01:03:22;;;;;;;34.65;32.85;;;;;;;20.00;44.46;100931.91;4939279;29;20038;-87
2021/12/03 01:05:48;;;;;;;37.83;35.75;;;;;;;19.99;44.65;100934.97;4938865;29;20105;-87
2021/12/03 01:08:13;;;;;;;35.38;33.58;;;;;;;19.98;44.84;100934.16;4955116;28;20067;-85
2021/12/03 01:10:39;;;;;;;34.97;33.08;;;;;;;19.97;44.98;100937.19;4938896;29;20377;-84
2021/12/03 01:13:05;;;;;;;34.00;32.10;;;;;;;19.98;45.46;100938.81;4938725;29;20031;-82
2021/12/03 01:15:34;;;;;;;33.83;32.03;;;;;;;19.98;46.03;100925.94;4956192;29;20046;-85
2021/12/03 01:18:00;;;;;;;35.90;33.85;;;;;;;19.99;46.12;100933.03;4938596;29;20037;-85
2021/12/03 01:20:27;;;;;;;34.03;32.25;;;;;;;19.98;45.73;100925.09;4938486;29;20452;-85
2021/12/03 01:22:53;;;;;;;38.40;36.20;;;;;;;19.99;45.56;100929.50;4955714;29;20058;-85
2021/12/03 01:25:21;;;;;;;35.03;33.13;;;;;;;19.98;45.27;100934.16;4955438;29;20461;-84
2021/12/03 01:27:47;;;;;;;34.42;32.63;;;;;;;19.97;45.20;100939.94;4938398;29;20436;-85
2021/12/03 01:30:17;;;;;;;34.90;33.20;;;;;;;19.97;45.23;100937.19;4954587;29;20448;-85
2021/12/03 01:32:43;;;;;;;34.40;32.60;;;;;;;19.96;45.08;100935.56;4955401;28;20031;-85
2021/12/03 01:35:09;;;;;;;34.75;33.03;;;;;;;19.94;44.91;100926.84;4938706;29;20090;-85
2021/12/03 01:37:35;;;;;;;34.83;33.03;;;;;;;19.93;44.91;100930.69;4954451;28;20039;-84
2021/12/03 01:40:03;;;;;;;36.85;34.78;;;;;;;19.92;45.24;100926.31;4938536;29;20464;-84
2021/12/03 01:42:29;;;;;;;34.60;32.80;;;;;;;19.91;45.03;100924.69;4938531;29;20046;-84
2021/12/03 01:44:54;;;;;;;35.65;33.70;;;;;;;19.92;45.23;100918.09;4954384;29;20027;-84
2021/12/03 01:47:20;;;;;;;35.70;33.88;;;;;;;19.91;45.10;100927.41;4938298;29;20595;-84
2021/12/03 01:49:45;;;;;;;35.40;33.47;;;;;;;19.89;44.80;100922.25;4938549;29;20051;-83
2021/12/03 01:52:11;;;;;;;33.88;32.17;;;;;;;19.88;44.84;100918.72;4938184;29;20136;-83
2021/12/03 01:54:36;;;;;;;34.08;32.38;;;;;;;19.86;44.91;100918.19;4938391;29;20482;-83
2021/12/03 01:57:02;;;;;;;35.03;33.22;;;;;;;19.87;44.96;100916.25;4954076;29;20460;-84
2021/12/03 01:59:27;;;;;;;34.38;32.58;;;;;;;19.85;45.01;100927.50;4954084;29;20039;-85
2021/12/03 02:01:53;;;;;;;35.15;33.30;;;;;;;19.84;45.15;100931.38;4937944;29;20114;-84
2021/12/03 02:04:18;;;;;;;35.40;33.58;;;;;;;19.82;45.02;100930.84;4938485;29;20043;-84
2021/12/03 02:06:44;;;;;;;33.90;32.05;;;;;;;19.81;45.07;100931.97;4938133;29;20373;-83
2021/12/03 02:09:09;;;;;;;34.38;32.67;;;;;;;19.80;45.12;100930.34;4938689;29;20106;-83
2021/12/03 02:11:35;;;;;;;34.25;32.45;;;;;;;19.80;44.83;100935.81;4954562;28;20531;-84
2021/12/03 02:14:01;;;;;;;36.60;34.63;;;;;;;19.78;44.98;100938.06;4954220;28;20050;-84
2021/12/03 02:16:27;;;;;;;35.72;33.83;;;;;;;19.78;44.93;100929.00;4953839;29;20197;-84
2021/12/03 02:18:53;;;;;;;35.17;33.22;;;;;;;19.78;44.98;100929.00;4937921;29;20063;-84
2021/12/03 02:21:19;;;;;;;34.58;32.78;;;;;;;19.76;45.38;100929.31;4937857;29;20081;-84
2021/12/03 02:23:45;;;;;;;35.13;33.25;;;;;;;19.76;45.18;100923.03;4954287;29;20039;-84
2021/12/03 02:26:11;;;;;;;33.92;32.15;;;;;;;19.74;45.13;100920.59;4937839;29;20105;-83
2021/12/03 02:28:42;;;;;;;34.50;32.70;;;;;;;19.74;45.25;100917.03;4954317;29;20046;-84
2021/12/03 02:31:08;;;;;;;37.17;35.03;;;;;;;19.74;45.02;100919.78;4954729;29;20414;-83
2021/12/03 02:33:35;;;;;;;34.65;32.83;;;;;;;19.73;45.19;100913.50;4937603;29;20032;-84
2021/12/03 02:36:01;;;;;;;36.10;33.97;;;;;;;19.71;45.13;100909.44;4954693;29;20039;-84
2021/12/03 02:38:27;;;;;;;36.13;34.22;;;;;;;19.72;45.12;100916.53;4953720;28;20031;-84
2021/12/03 02:40:54;;;;;;;35.45;33.55;;;;;;;19.71;45.37;100909.44;4954796;29;20032;-85
2021/12/03 02:43:20;;;;;;;36.20;34.20;;;;;;;19.70;45.13;100913.25;4955035;29;20102;-84
2021/12/03 02:45:46;;;;;;;35.35;33.45;;;;;;;19.69;45.23;100909.72;4955365;28;20457;-84
2021/12/03 02:48:11;;;;;;;36.03;33.83;;;;;;;19.68;45.30;100908.09;4953629;28;20116;-84
2021/12/03 02:50:37;;;;;;;36.00;33.90;;;;;;;19.67;45.46;100907.25;4940463;29;20411;-83
2021/12/03 02:53:03;;;;;;;35.80;33.70;;;;;;;19.67;45.35;100911.94;4958659;29;20070;-84
2021/12/03 02:55:28;;;;;;;35.92;33.80;;;;;;;19.65;45.09;100909.47;4941113;29;20436;-84
2021/12/03 02:57:54;;;;;;;35.38;33.35;;;;;;;19.66;45.23;100904.81;4957763;29;20039;-84
2021/12/03 03:00:23;;;;;;;34.67;32.60;;;;;;;19.65;45.23;100897.69;4957059;29;20032;-84
2021/12/03 03:02:49;;;;;;;35.60;33.50;;;;;;;19.64;45.43;100896.06;4956928;28;20114;-84
2021/12/03 03:05:16;;;;;;;35.17;33.25;;;;;;;19.63;45.07;100898.00;4956991;28;20126;-84
2021/12/03 03:07:42;;;;;;;35.38;33.28;;;;;;;19.62;45.18;100906.50;4941041;29;20031;-84
2021/12/03 03:10:10;;;;;;;35.67;33.47;;;;;;;19.62;45.33;100914.72;4956947;28;20062;-84
2021/12/03 03:12:39;;;;;;;35.03;33.03;;;;;;;19.61;45.40;100913.13;4941687;29;20074;-84
2021/12/03 03:15:06;;;;;;;36.08;33.88;;;;;;;19.59;45.17;100902.44;4957062;29;20078;-84
2021/12/03 03:17:33;;;;;;;34.25;32.35;;;;;;;19.58;45.42;100897.25;4957772;28;20110;-84
2021/12/03 03:19:59;;;;;;;35.97;33.83;;;;;;;19.58;45.16;100900.81;4957388;28;20039;-84
2021/12/03 03:22:26;;;;;;;36.10;33.97;;;;;;;19.57;45.25;100904.66;4958700;29;20090;-84
2021/12/03 03:24:53;;;;;;;34.88;32.72;;;;;;;19.58;45.31;100903.56;4956575;28;20472;-83
2021/12/03 03:27:21;;;;;;;35.30;33.35;;;;;;;19.56;45.17;100899.50;4956310;29;20031;-84
2021/12/03 03:29:48;;;;;;;34.95;32.95;;;;;;;19.55;45.12;100893.19;4958374;29;20059;-84
2021/12/03 03:32:15;;;;;;;36.50;34.10;;;;;;;19.55;45.18;100893.19;4957944;29;20031;-84
2021/12/03 03:34:41;;;;;;;35.50;33.30;;;;;;;19.55;45.37;100897.84;4940531;29;20415;-84
2021/12/03 03:37:08;;;;;;;36.55;34.55;;;;;;;19.54;45.14;100896.25;4940506;29;20486;-83
2021/12/03 03:39:33;;;;;;;35.95;33.83;;;;;;;19.52;45.51;100893.78;4957946;29;20027;-84
2021/12/03 03:41:58;;;;;;;35.53;33.53;;;;;;;19.52;45.20;100890.25;4957514;29;20395;-84
2021/12/03 03:44:24;;;;;;;36.10;33.90;;;;;;;19.51;45.49;100894.09;4956312;29;20114;-84
2021/12/03 03:46:51;;;;;;;35.50;33.42;;;;;;;19.52;45.24;100887.50;4940652;29;20094;-84
2021/12/03 03:49:17;;;;;;;35.55;33.55;;;;;;;19.49;45.43;100877.16;4940061;29;20109;-83
2021/12/03 03:51:43;;;;;;;36.22;34.10;;;;;;;19.49;45.45;100871.66;4957463;28;20055;-83
2021/12/03 03:54:09;;;;;;;36.85;34.47;;;;;;;19.49;45.46;100882.63;4957350;28;20361;-84
2021/12/03 03:56:34;;;;;;;36.15;34.13;;;;;;;19.48;45.28;100880.97;4940191;29;20393;-84
2021/12/03 03:59:00;;;;;;;36.05;33.90;;;;;;;19.48;45.50;100884.56;4940307;29;20062;-85
2021/12/03 04:01:25;;;;;;;35.92;33.72;;;;;;;19.47;45.34;100885.66;4955877;28;20464;-84
2021/12/03 04:03:51;;;;;;;36.65;34.55;;;;;;;19.45;45.52;100874.16;4940168;29;20055;-84
2021/12/03 04:06:19;;;;;;;37.28;35.10;;;;;;;19.45;45.44;100872.28;4939832;29;20035;-84
2021/12/03 04:08:46;;;;;;;36.95;34.75;;;;;;;19.45;45.55;100868.69;4957219;29;20043;-84
2021/12/03 04:11:13;;;;;;;37.63;35.40;;;;;;;19.45;45.35;100876.91;4939997;29;20031;-83
2021/12/03 04:13:39;;;;;;;37.60;35.22;;;;;;;19.43;45.31;100869.00;4956024;28;20067;-84
2021/12/03 04:16:05;;;;;;;38.25;35.78;;;;;;;19.42;45.63;100870.09;4939530;29;20408;-84
2021/12/03 04:18:31;;;;;;;35.38;33.28;;;;;;;19.41;45.61;100868.50;4955657;29;20027;-84
2021/12/03 04:20:56;;;;;;;36.95;34.83;;;;;;;19.42;45.49;100863.81;4956803;29;20032;-83
2021/12/03 04:23:22;;;;;;;36.03;34.00;;;;;;;19.40;45.57;100855.91;4956767;28;20054;-83
2021/12/03 04:25:49;;;;;;;36.90;34.65;;;;;;;19.40;45.81;100853.19;4939670;29;20031;-84
2021/12/03 04:28:16;;;;;;;38.17;35.85;;;;;;;19.40;45.59;100852.34;4956690;28;20071;-84
2021/12/03 04:30:42;;;;;;;37.67;35.08;;;;;;;19.39;45.88;100850.72;4956432;28;20416;-84
2021/12/03 04:33:08;;;;;;;37.03;34.72;;;;;;;19.38;45.76;100854.59;4956638;28;20106;-84
2021/12/03 04:35:34;;;;;;;37.08;34.97;;;;;;;19.38;45.87;100860.06;4939675;29;20035;-84
2021/12/03 04:38:00;;;;;;;36.53;34.33;;;;;;;19.38;45.68;100851.84;4955049;29;20396;-83
2021/12/03 04:40:29;;;;;;;36.88;34.78;;;;;;;19.36;45.67;100863.09;4955104;29;20058;-84
2021/12/03 04:42:54;;;;;;;36.17;33.88;;;;;;;19.35;45.75;100883.41;4955305;29;20054;-84
2021/12/03 04:45:23;;;;;;;38.65;36.22;;;;;;;19.34;45.65;100876.28;4956353;29;20465;-84
2021/12/03 04:47:51;;;;;;;35.55;33.28;;;;;;;19.34;45.56;100868.06;4955342;28;20034;-84
2021/12/03 04:50:18;;;;;;;37.78;35.30;;;;;;;19.33;45.83;100860.97;4954588;28;20137;-84
2021/12/03 04:52:43;;;;;;;37.33;34.95;;;;;;;19.32;45.46;100866.72;4956673;29;20031;-84
2021/12/03 04:55:10;;;;;;;38.55;35.88;;;;;;;19.32;45.55;100872.19;4923462;29;20039;-84
2021/12/03 04:57:36;;;;;;;36.75;34.55;;;;;;;19.31;45.59;100859.63;4954929;29;20404;-84
2021/12/03 05:00:04;;;;;;;36.38;34.28;;;;;;;19.31;45.73;100856.91;4939112;29;20070;-85
2021/12/03 05:02:30;;;;;;;;;;;;;;;19.27;45.62;100853.91;4956765;28;20099;-84
2021/12/03 05:04:59;;;;;;;33.97;31.98;;;;;;;19.28;45.81;100861.03;4955517;28;20017;-83
2021/12/03 05:07:42;;;;;;;35.60;33.38;;;;;;;19.28;45.46;100852.00;4956226;28;20074;-84
2021/12/03 05:10:10;;;;;;;37.30;34.88;;;;;;;19.26;45.61;100852.31;4941375;29;20043;-84
2021/12/03 05:12:36;;;;;;;35.53;33.40;;;;;;;19.26;45.81;100846.81;4955198;28;20090;-83
2021/12/03 05:15:03;;;;;;;34.28;32.33;;;;;;;19.26;45.65;100846.81;4955911;29;20065;-83
2021/12/03 05:17:28;;;;;;;35.78;33.55;;;;;;;19.25;45.59;100845.19;4938727;29;20090;-83
2021/12/03 05:19:54;;;;;;;36.05;33.85;;;;;;;19.23;45.87;100840.03;4954674;28;20487;-83
2021/12/03 05:22:19;;;;;;;37.22;35.00;;;;;;;19.24;45.54;100843.56;4955628;28;20035;-84
2021/12/03 05:24:45;;;;;;;36.00;33.80;;;;;;;19.23;45.73;100842.75;4954517;28;20043;-86
2021/12/03 05:27:17;;;;;;;37.13;34.67;;;;;;;19.23;45.61;100840.03;4938700;29;20039;-85
2021/12/03 05:29:45;;;;;;;37.30;35.00;;;;;;;19.22;45.88;100843.06;4955665;28;20035;-85
2021/12/03 05:32:11;;;;;;;37.42;34.80;;;;;;;19.22;45.94;100834.84;4938634;29;20086;-85
2021/12/03 05:34:38;;;;;;;34.95;32.95;;;;;;;19.22;45.75;100837.56;4955974;29;20432;-85
2021/12/03 05:37:05;;;;;;;35.80;33.80;;;;;;;19.21;46.09;100844.16;4955655;29;20031;-82
2021/12/03 05:39:31;;;;;;;36.22;34.00;;;;;;;19.20;45.63;100846.09;4938213;29;20035;-83
2021/12/03 05:41:56;;;;;;;35.50;33.60;;;;;;;19.20;45.93;100842.53;4938491;29;20042;-83
2021/12/03 05:44:22;;;;;;;37.40;35.20;;;;;;;19.20;45.93;100853.47;4937681;29;20031;-83
2021/12/03 05:46:47;;;;;;;35.13;33.05;;;;;;;19.17;45.75;100849.41;4938127;29;20031;-83
2021/12/03 05:49:13;;;;;;;36.85;34.72;;;;;;;19.19;45.86;100854.59;4938159;29;20078;-83
2021/12/03 05:51:38;;;;;;;35.33;33.25;;;;;;;19.17;45.80;100835.72;4954223;29;20047;-82
2021/12/03 05:54:04;;;;;;;34.88;32.85;;;;;;;19.18;45.93;100847.50;4938183;29;20036;-85
2021/12/03 05:56:29;;;;;;;35.67;33.63;;;;;;;19.17;46.01;100840.41;4956116;28;20515;-82
2021/12/03 05:58:55;;;;;;;36.17;34.08;;;;;;;19.17;45.81;100848.59;4953982;28;20082;-83
2021/12/03 06:01:20;;;;;;;35.80;33.63;;;;;;;19.16;45.89;100838.78;4937683;29;20027;-83
2021/12/03 06:03:47;;;;;;;34.63;32.75;;;;;;;19.15;45.85;100831.66;4938225;29;20027;-83
2021/12/03 06:06:15;;;;;;;35.83;33.67;;;;;;;19.15;45.47;100831.66;4938293;29;20093;-83
2021/12/03 06:08:42;;;;;;;35.55;33.60;;;;;;;19.14;45.82;100830.84;4955207;29;20380;-82
2021/12/03 06:11:07;;;;;;;34.40;32.60;;;;;;;19.14;46.00;100832.78;4938484;29;20067;-82
2021/12/03 06:13:38;;;;;;;34.40;32.42;;;;;;;19.14;45.97;100833.59;4954730;28;20042;-81
2021/12/03 06:16:04;;;;;;;35.88;33.88;;;;;;;19.13;45.73;100826.50;4939554;29;20031;-82
2021/12/03 06:18:30;;;;;;;35.63;33.60;;;;;;;19.13;45.80;100825.69;4953811;28;20081;-82
2021/12/03 06:20:55;;;;;;;35.40;33.50;;;;;;;19.12;45.92;100824.03;4937997;29;20071;-85
2021/12/03 06:23:21;;;;;;;37.40;35.05;;;;;;;19.12;45.81;100824.03;4938082;28;20042;-82
2021/12/03 06:25:46;;;;;;;34.55;32.65;;;;;;;19.11;45.84;100827.91;4957337;29;20035;-83
2021/12/03 06:28:11;;;;;;;33.83;31.83;;;;;;;19.11;45.77;100830.66;4925740;29;20495;-83
2021/12/03 06:30:37;;;;;;;35.13;33.22;;;;;;;19.10;45.79;100827.09;4958618;29;20511;-82
2021/12/03 06:33:03;;;;;;;35.47;33.40;;;;;;;19.09;46.11;100819.97;4941462;29;20488;-83
2021/12/03 06:35:28;;;;;;;35.92;33.85;;;;;;;19.10;45.76;100826.25;4941776;29;20039;-86
2021/12/03 06:37:54;;;;;;;35.28;32.75;;;;;;;19.10;45.77;100826.25;4941528;29;20038;-83
2021/12/03 06:40:23;;;;;;;35.65;33.58;;;;;;;19.09;45.93;100835.59;4957961;29;20066;-84
2021/12/03 06:42:49;;;;;;;34.50;32.60;;;;;;;19.08;46.18;100844.94;4958653;28;20027;-83
2021/12/03 06:45:15;;;;;;;35.33;33.42;;;;;;;19.08;45.97;100839.47;4941585;29;20038;-83
2021/12/03 06:47:40;;;;;;;35.38;33.30;;;;;;;19.06;45.72;100837.00;4941501;29;20122;-83
2021/12/03 06:50:09;;;;;;;34.63;32.63;;;;;;;19.07;45.96;100843.28;4941198;29;20514;-84
2021/12/03 06:52:38;;;;;;;34.80;32.97;;;;;;;19.07;45.91;100826.88;4957129;28;20400;-82
2021/12/03 06:55:08;;;;;;;34.15;32.25;;;;;;;19.05;45.89;100831.81;4941983;29;20039;-82
2021/12/03 06:57:33;;;;;;;32.67;30.77;;;;;;;19.05;46.08;100845.50;4941700;29;20058;-82
2021/12/03 06:59:59;;;;;;;34.05;31.98;;;;;;;19.05;46.00;100842.78;4957144;29;20066;-85
2021/12/03 07:02:24;;;;;;;35.17;33.10;;;;;;;19.04;45.98;100828.28;4958226;29;20050;-83
2021/12/03 07:04:49;;;;;;;33.72;31.85;;;;;;;19.03;45.81;100821.19;4941465;29;20101;-82
2021/12/03 07:07:15;;;;;;;35.05;33.00;;;;;;;19.02;45.76;100823.13;4940900;29;20035;-82
2021/12/03 07:09:41;;;;;;;33.83;32.03;;;;;;;19.02;46.01;100814.06;4940694;29;20118;-84
2021/12/03 07:12:08;;;;;;;33.95;32.03;;;;;;;19.02;45.87;100819.53;4958177;28;20039;-83
2021/12/03 07:14:33;;;;;;;34.70;32.67;;;;;;;19.01;45.68;100815.19;4941037;29;20149;-84
2021/12/03 07:16:59;;;;;;;34.08;32.08;;;;;;;19.01;46.04;100818.72;4958031;29;20432;-84
2021/12/03 07:19:25;;;;;;;34.88;32.88;;;;;;;19.01;45.87;100813.25;4957955;28;20047;-82
2021/12/03 07:21:50;;;;;;;34.75;32.78;;;;;;;19.00;45.77;100819.03;4956604;29;20031;-85
2021/12/03 07:24:16;;;;;;;33.78;31.88;;;;;;;18.99;45.98;100799.03;4941070;29;20035;-83
2021/12/03 07:26:41;;;;;;;33.60;31.70;;;;;;;18.99;45.89;100804.53;4940774;29;20073;-84
2021/12/03 07:29:07;;;;;;;33.95;31.85;;;;;;;18.99;46.02;100803.72;4940760;29;20039;-82
2021/12/03 07:31:32;;;;;;;36.00;34.10;;;;;;;18.98;45.99;100813.84;4957796;29;20496;-85
2021/12/03 07:33:58;;;;;;;33.60;31.70;;;;;;;18.98;46.01;100805.66;4941399;29;20028;-84
2021/12/03 07:36:23;;;;;;;35.17;33.20;;;;;;;18.99;45.77;100809.19;4957512;28;20536;-84
2021/12/03 07:38:49;;;;;;;33.90;32.08;;;;;;;18.98;45.85;100813.84;4956286;28;20114;-85
2021/12/03 07:41:14;;;;;;;33.95;32.05;;;;;;;18.98;46.03;100808.38;4957596;29;20159;-86
2021/12/03 07:43:40;;;;;;;34.42;32.30;;;;;;;18.97;45.92;100803.19;4940044;29;20031;-85
2021/12/03 07:46:06;;;;;;;34.65;32.75;;;;;;;18.96;46.07;100802.38;4957796;28;20066;-83
2021/12/03 07:48:32;;;;;;;35.75;33.65;;;;;;;18.96;46.07;100796.91;4957328;29;20055;-83
2021/12/03 07:50:58;;;;;;;34.42;32.42;;;;;;;18.96;46.05;100799.66;4940561;29;20091;-83
2021/12/03 07:53:24;;;;;;;34.60;32.70;;;;;;;18.96;45.96;100790.63;4956708;29;20039;-83
2021/12/03 07:55:51;;;;;;;34.08;32.13;;;;;;;18.96;46.00;100787.88;4940103;29;20499;-81
2021/12/03 07:58:18;;;;;;;34.28;32.45;;;;;;;18.96;45.83;100782.41;4957323;29;20027;-81
2021/12/03 08:00:45;;;;;;;33.25;31.38;;;;;;;18.95;45.92;100778.88;4940006;29;20062;-81
2021/12/03 08:03:11;;;;;;;34.10;32.30;;;;;;;18.96;45.84;100782.41;4957576;28;20035;-81
2021/12/03 08:05:36;;;;;;;34.90;32.90;;;;;;;18.95;45.92;100786.25;4955796;28;20067;-81
2021/12/03 08:08:02;;;;;;;33.38;31.48;;;;;;;18.93;46.06;100789.31;4957721;29;20109;-83
2021/12/03 08:10:27;;;;;;;35.95;33.95;;;;;;;18.94;46.04;100787.38;4956276;29;20372;-84
2021/12/03 08:12:53;;;;;;;33.90;32.17;;;;;;;18.94;45.99;100776.41;4957405;29;20035;-81
2021/12/03 08:15:19;;;;;;;33.53;31.70;;;;;;;18.94;45.97;100784.63;4955745;29;20110;-82
2021/12/03 08:17:48;;;;;;;33.17;31.48;;;;;;;18.93;45.88;100794.78;4955735;29;20035;-82
2021/12/03 08:20:14;;;;;;;33.95;32.03;;;;;;;18.94;46.22;100795.59;4955608;28;20126;-82
2021/12/03 08:22:40;;;;;;;34.05;32.08;;;;;;;18.93;45.88;100788.50;4955518;29;20551;-83
2021/12/03 08:25:06;;;;;;;32.75;30.80;;;;;;;18.93;46.13;100791.22;4956820;28;20035;-82
2021/12/03 08:27:32;;;;;;;34.05;32.08;;;;;;;18.93;46.19;100793.97;4939788;29;20060;-83
2021/12/03 08:29:58;;;;;;;33.13;31.23;;;;;;;18.92;45.99;100792.31;4940277;29;20543;-84
2021/12/03 08:32:23;;;;;;;34.70;32.70;;;;;;;18.91;46.26;100791.50;4940011;29;20110;-83
2021/12/03 08:34:48;;;;;;;34.05;32.10;;;;;;;18.91;46.14;100791.50;4939476;29;20031;-82
2021/12/03 08:37:14;;;;;;;34.03;31.90;;;;;;;18.90;46.28;100792.63;4939935;29;20041;-81
2021/12/03 08:39:39;;;;;;;35.42;33.40;;;;;;;18.91;46.29;100790.72;4956820;28;20027;-81
2021/12/03 08:42:07;;;;;;;33.60;31.75;;;;;;;18.90;46.27;100787.16;4939878;29;20039;-82
2021/12/03 08:44:32;;;;;;;35.05;32.90;;;;;;;18.91;46.29;100787.97;4955113;29;20135;-82
2021/12/03 08:47:01;;;;;;;34.00;32.20;;;;;;;18.89;46.10;100788.25;4939094;29;20035;-82
2021/12/03 08:49:39;;;;;;;34.42;32.58;;;;;;;18.90;46.29;100783.59;4956194;28;20047;-82
2021/12/03 08:57:24;;;;;;;33.47;31.58;;;;;;;18.89;46.40;100766.38;4956391;29;20058;-80
2021/12/03 08:59:53;;;;;;;33.60;31.55;;;;;;;18.90;46.47;100769.91;4955274;29;20063;-81
2021/12/03 09:02:19;;;;;;;33.63;31.70;;;;;;;18.88;46.76;100759.28;4954389;28;20468;-79
2021/12/03 09:04:45;;;;;;;34.22;32.30;;;;;;;18.89;46.38;100763.63;4955779;29;20123;-80
2021/12/03 09:07:10;;;;;;;35.67;33.58;;;;;;;18.90;46.54;100768.00;4938781;29;20039;-81
2021/12/03 09:09:36;;;;;;;35.13;33.13;;;;;;;18.90;46.48;100753.50;4955876;29;20463;-81
2021/12/03 09:12:02;;;;;;;34.60;32.35;;;;;;;18.91;46.76;100753.19;4938196;29;20063;-81
2021/12/03 09:19:55;;;;;;;31.95;30.25;;;;;;;18.98;47.04;100755.56;4941613;29;20050;-83
2021/12/03 09:22:42;;;;;;;32.13;30.33;;;;;;;18.99;47.39;100757.97;4940117;29;20122;-81
2021/12/03 09:25:11;;;;;;;33.25;31.25;;;;;;;19.02;47.40;100760.16;4954410;29;20110;-83
2021/12/03 09:27:37;;;;;;;32.35;30.52;;;;;;;19.05;47.42;100753.25;4955596;28;20031;-83
2021/12/03 09:30:08;;;;;;;34.10;31.98;;;;;;;19.07;47.86;100756.50;4954415;28;20038;-83
2021/12/03 09:32:34;;;;;;;35.85;33.65;;;;;;;19.10;47.70;100760.56;4955195;29;20062;-81
2021/12/03 09:35:01;;;;;;;33.55;31.52;;;;;;;19.12;48.34;100761.88;4938431;29;20464;-81
2021/12/03 09:37:27;;;;;;;33.00;30.98;;;;;;;19.15;47.86;100757.72;4956268;29;20046;-81
2021/12/03 09:39:53;;;;;;;33.15;31.05;;;;;;;19.17;48.09;100744.56;4938719;29;20129;-84
2021/12/03 09:42:19;;;;;;;33.78;31.67;;;;;;;19.19;48.09;100736.84;4938185;29;20067;-83
2021/12/03 09:44:46;;;;;;;36.83;33.85;;;;;;;19.22;48.42;100736.25;4938336;29;20038;-80
2021/12/03 09:47:16;;;;;;;35.00;32.65;;;;;;;19.26;48.32;100739.22;4938034;29;20439;-81
2021/12/03 09:49:42;;;;;;;35.25;32.78;;;;;;;19.27;48.61;100725.22;4937789;29;20067;-80
2021/12/03 09:55:00;;;;;;;33.20;31.25;;;;;;;19.31;48.31;100718.03;4955814;29;20546;-80
2021/12/03 09:57:39;;;;;;;33.42;31.20;;;;;;;19.33;48.51;100712.25;4955467;29;20042;-82
2021/12/03 10:14:03;;;;;;;35.35;32.95;;;;;;;19.41;48.32;100695.91;4955407;29;20051;-82
2021/12/03 10:18:57;;;;;;;34.67;32.58;;;;;;;19.43;48.02;100687.41;4937851;29;20047;-79
2021/12/03 10:39:03;;;;;;;36.03;33.88;;;;;;;19.48;47.01;100648.97;4954651;28;20038;-77
2021/12/03 10:56:43;;;;;;;38.13;35.83;;;;;;;19.53;46.23;100593.22;4937174;29;20036;-81
2021/12/03 11:04:44;;;;;;;37.05;34.85;;;;;;;19.55;45.80;100591.00;4954437;29;20051;-80
2021/12/03 11:07:55;;;;;;;37.30;35.03;;;;;;;19.54;45.73;100590.19;4954346;29;20075;-79
2021/12/03 11:51:10;;;;;;;36.50;34.40;;;;;;;19.58;44.50;100511.75;4957732;29;20043;-79
2021/12/03 12:14:22;;;;;;;35.42;33.17;;;;;;;19.58;43.87;100467.91;4956168;29;20054;-79
2021/12/03 13:08:27;;;;;;;38.95;35.10;;;;;;;19.66;43.70;100401.41;4955816;29;20058;-77
2021/12/03 13:22:48;;;;;;;36.70;34.40;;;;;;;19.66;42.95;100376.75;4955635;29;20098;-77
2021/12/03 14:06:06;;;;;;;35.70;33.40;;;;;;;19.65;42.50;100317.59;4955037;29;20043;-78
2021/12/03 14:20:31;;;;;;;35.85;33.72;;;;;;;19.66;42.55;100316.47;4955508;29;20127;-77
2021/12/03 14:44:40;;;;;;;34.70;32.85;;;;;;;19.66;42.39;100329.38;4962836;28;20049;-76
2021/12/03 14:50:43;;;;;;;37.42;35.25;;;;;;;19.65;42.32;100320.34;4955863;29;20047;-77
2021/12/03 14:55:34;;;;;;;35.35;33.50;;;;;;;19.66;42.49;100316.47;4957136;28;20046;-77
2021/12/03 14:58:19;;;;;;;36.00;34.10;;;;;;;19.68;42.44;100327.16;4956995;29;20027;-77
2021/12/03 15:00:52;;;;;;;37.40;35.47;;;;;;;19.68;42.47;100327.16;4958031;29;20038;-77
2021/12/03 15:03:44;;;;;;;36.33;34.33;;;;;;;19.69;42.47;100322.47;4958508;29;20056;-77
2021/12/03 15:06:19;;;;;;;38.25;36.05;;;;;;;19.69;42.26;100317.81;4957397;29;20429;-78
2021/12/03 15:09:48;;;;;;;35.45;33.63;;;;;;;19.69;42.67;100312.31;4958425;29;20035;-77
2021/12/03 15:32:53;;;;;;;36.00;34.00;;;;;;;19.72;42.66;100294.44;4940790;29;20130;-76
2021/12/03 15:35:26;;;;;;;35.47;33.05;;;;;;;19.72;42.56;100289.75;4958194;29;20459;-77
2021/12/03 15:56:43;;;;;;;34.90;32.65;;;;;;;19.76;42.70;100254.34;4956970;28;20395;-78
2021/12/03 16:04:49;;;;;;;36.00;34.10;;;;;;;19.77;42.61;100254.00;4958125;29;20046;-78
2021/12/03 16:15:14;;;;;;;33.35;31.65;;;;;;;19.80;42.53;100260.78;4957185;29;20111;-77
2021/12/03 16:18:14;;;;;;;35.30;33.33;;;;;;;19.80;42.58;100252.56;4957302;29;20035;-78
2021/12/03 16:52:51;;;;;;;34.47;32.55;;;;;;;19.85;43.01;100214.03;4956086;29;20046;-78
2021/12/03 16:55:18;;;;;;;34.65;32.95;;;;;;;19.85;43.10;100225.00;4955958;28;20075;-78
2021/12/03 16:57:45;;;;;;;31.90;30.35;;;;;;;19.87;42.97;100222.75;4955896;29;20395;-79
2021/12/03 17:00:19;;;;;;;35.72;33.72;;;;;;;19.87;43.33;100228.25;4939223;29;20392;-78
2021/12/03 17:16:13;;;;;;;35.97;34.25;;;;;;;19.89;42.91;100202.13;4956064;29;20039;-79
2021/12/03 17:45:34;;;;;;;36.42;34.55;;;;;;;19.92;43.12;100121.19;4941056;29;20050;-82
2021/12/03 17:48:41;;;;;;;35.65;33.85;;;;;;;19.93;42.94;100122.00;4955578;29;20035;-83
2021/12/03 17:53:50;;;;;;;37.00;34.75;;;;;;;19.94;43.31;100121.69;4955481;29;20057;-80